This is the latest recevied weather packets stored in our database for station/object DC2MP. If no packets are shown the sender has not sent any weather packets the latest 1 day(s).
| Time | Temp. | Humidity | Pressure | Rain* | Wind** | Luminosity | Snow |
|---|---|---|---|---|---|---|---|
| 1778417343 | 21.11° C | 37% | 1009.5 hPa | 0 mm | - | - | - |
| 1778413743 | 21.67° C | 34% | 1009.9 hPa | 0 mm | - | - | - |
| 1778410143 | 21.11° C | 34% | 1010.1 hPa | 0 mm | - | - | - |
| 1778406544 | 21.67° C | 30% | 1010.5 hPa | 0 mm | - | - | - |
| 1778402943 | 18.89° C | 45% | 1011.1 hPa | 0 mm | - | - | - |
| 1778395744 | 13.89° C | 69% | 1011.8 hPa | 0 mm | - | - | - |
| 1778392143 | 8.33° C | 87% | 1012.4 hPa | 0 mm | - | - | - |
| 1778384943 | 6.67° C | 90% | 1013.2 hPa | 0 mm | - | - | - |
| 1778381344 | 7.22° C | 89% | 1013.5 hPa | 0 mm | - | - | - |
| 1778377743 | 7.22° C | 90% | 1013.9 hPa | 0 mm | - | - | - |
| 1778374143 | 7.22° C | 89% | 1013.9 hPa | 0 mm | - | - | - |
| 1778370543 | 8.89° C | 87% | 1014.3 hPa | 0 mm | - | - | - |
| 1778366943 | 9.44° C | 84% | 1014.8 hPa | 0 mm | - | - | - |
| 1778363343 | 10.56° C | 83% | 1014.9 hPa | 0 mm | - | - | - |
| 1778359743 | 11.11° C | 81% | 1014.8 hPa | 0 mm | - | - | - |
| 1778352543 | 15.56° C | 63% | 1014.7 hPa | 0 mm | - | - | - |
| 1778348943 | 18.89° C | 47% | 1014.3 hPa | 0 mm | - | - | - |
| 1778341743 | 21.11° C | 40% | 1014.6 hPa | 0 mm | - | - | - |
| 1778338143 | 20° C | 44% | 1015.1 hPa | 0 mm | - | - | - |
| 1778334543 | 20° C | 44% | 1015.6 hPa | 0 mm | - | - | - |
* Rain latest hour (hover to see other rain measurements)
** Current wind speed in m/s (hover to see current wind gust speed)